Time;durP1;ratioP1;P1;durP2;ratioP2;P2;SDS_P1;SDS_P2;PMS_P1;PMS_P2;Temp;Humidity;BMP_temperature;BMP_pressure;BME280_temperature;BME280_humidity;BME280_pressure;Samples;Min_cycle;Max_cycle;Signal;HPM_P1;HPM_P2
2021/10/16 00:01:52;;;;;;;25.88;12.58;;;;;;;7.25;82.79;100965.61;1728104;81;21098;-83
2021/10/16 00:04:20;;;;;;;44.48;23.57;;;;;;;7.25;82.86;100971.27;1727420;82;21131;-84
2021/10/16 00:06:47;;;;;;;32.53;17.25;;;;;;;7.23;82.89;100973.82;1727935;82;21078;-83
2021/10/16 00:09:14;;;;;;;32.53;18.35;;;;;;;7.20;82.91;100973.25;1727552;83;21594;-83
2021/10/16 00:11:43;;;;;;;30.52;15.10;;;;;;;7.19;82.95;100972.80;1727392;83;21821;-83
2021/10/16 00:14:10;;;;;;;26.70;15.00;;;;;;;7.19;82.99;100971.91;1727529;83;21050;-84
2021/10/16 00:16:37;;;;;;;24.70;12.98;;;;;;;7.18;82.95;100974.92;1727721;83;21527;-84
2021/10/16 00:19:05;;;;;;;19.52;10.93;;;;;;;7.16;82.93;100981.81;1727617;83;21136;-83
2021/10/16 00:21:33;;;;;;;16.82;11.45;;;;;;;7.15;83.00;100982.66;1727611;81;21633;-83
2021/10/16 00:24:00;;;;;;;35.73;18.80;;;;;;;7.15;83.02;100983.97;1727788;83;21785;-84
2021/10/16 00:26:27;;;;;;;33.02;20.77;;;;;;;7.14;82.98;100982.17;1727550;83;21106;-83
2021/10/16 00:28:54;;;;;;;31.62;16.25;;;;;;;7.15;82.96;100980.44;1727735;81;21121;-84
2021/10/16 00:31:21;;;;;;;48.85;27.32;;;;;;;7.15;82.97;100984.36;1727657;83;21077;-84
2021/10/16 00:33:48;;;;;;;36.35;17.67;;;;;;;7.13;82.96;100988.64;1727769;82;21057;-84
2021/10/16 00:36:14;;;;;;;49.90;26.57;;;;;;;7.13;82.94;100988.64;1727782;82;21724;-84
2021/10/16 00:38:41;;;;;;;37.20;20.45;;;;;;;7.13;82.89;100986.02;1727808;82;21084;-84
2021/10/16 00:41:13;;;;;;;50.50;27.30;;;;;;;7.11;82.88;100988.99;1727190;82;21520;-85
2021/10/16 00:43:39;;;;;;;49.13;25.97;;;;;;;7.10;82.88;100989.41;1708516;83;21074;-84
2021/10/16 00:46:07;;;;;;;43.70;23.85;;;;;;;7.09;82.82;100988.92;1726584;82;21078;-84
2021/10/16 00:48:35;;;;;;;46.37;23.27;;;;;;;7.07;82.81;100992.31;1717148;83;21923;-85
2021/10/16 00:51:02;;;;;;;54.93;24.30;;;;;;;7.05;82.75;100993.55;1717990;83;21031;-85
2021/10/16 00:53:28;;;;;;;104.17;45.50;;;;;;;7.04;82.79;100990.86;1718312;83;21032;-85
2021/10/16 00:55:55;;;;;;;110.42;45.12;;;;;;;7.00;82.73;100989.83;1718096;83;21063;-84
2021/10/16 00:58:23;;;;;;;54.60;24.55;;;;;;;6.97;82.67;100994.95;1718987;82;21524;-85
2021/10/16 01:00:50;;;;;;;150.05;62.50;;;;;;;6.94;82.68;100997.00;1718232;83;21764;-84
2021/10/16 01:03:20;;;;;;;93.85;40.98;;;;;;;6.91;82.65;101001.23;1717742;83;21083;-83
2021/10/16 01:05:45;;;;;;;84.65;38.00;;;;;;;6.87;82.67;101002.83;1717890;83;21553;-83
2021/10/16 01:08:12;;;;;;;42.48;19.15;;;;;;;6.86;82.73;101007.98;1717695;82;21030;-83
2021/10/16 01:10:39;;;;;;;18.35;8.43;;;;;;;6.81;82.71;101002.14;1717626;83;21104;-83
2021/10/16 01:13:07;;;;;;;10.82;4.95;;;;;;;6.81;82.85;101007.77;1717434;83;21078;-83
2021/10/16 01:15:34;;;;;;;8.03;2.95;;;;;;;6.80;82.97;101000.34;1717717;83;21058;-84
2021/10/16 01:18:03;;;;;;;6.42;2.75;;;;;;;6.83;83.10;101010.03;1718018;82;21082;-85
2021/10/16 01:20:34;;;;;;;8.73;3.12;;;;;;;6.86;83.17;101006.67;1699455;83;21104;-84
2021/10/16 01:22:59;;;;;;;8.38;2.90;;;;;;;6.86;83.15;101007.98;1717637;83;21052;-84
2021/10/16 01:25:25;;;;;;;6.03;2.70;;;;;;;6.88;83.20;101011.56;1718128;82;21688;-84
2021/10/16 01:27:53;;;;;;;7.80;2.62;;;;;;;6.90;83.24;101006.86;1717642;82;21458;-84
2021/10/16 01:30:22;;;;;;;7.17;2.77;;;;;;;6.93;83.31;101010.94;1718234;83;21567;-84
2021/10/16 01:32:51;;;;;;;6.05;2.95;;;;;;;6.98;83.34;101016.36;1717732;83;21050;-83
2021/10/16 01:35:20;;;;;;;6.67;2.22;;;;;;;7.02;83.33;101017.00;1698434;83;21105;-84
2021/10/16 01:37:50;;;;;;;9.63;2.40;;;;;;;7.04;83.35;101015.34;1718008;83;21899;-83
2021/10/16 01:40:17;;;;;;;5.75;2.60;;;;;;;7.08;83.36;101015.94;1717903;83;21532;-83
2021/10/16 01:42:43;;;;;;;8.18;2.50;;;;;;;7.14;83.44;101017.93;1718232;83;21105;-83
2021/10/16 01:45:14;;;;;;;8.25;2.50;;;;;;;7.18;83.43;101022.04;1718050;82;21007;-84
2021/10/16 01:47:52;;;;;;;9.88;2.60;;;;;;;7.24;83.41;101017.91;1723316;82;21112;-84
2021/10/16 01:50:21;;;;;;;10.90;2.70;;;;;;;7.30;83.44;101019.47;1726934;81;21094;-83
2021/10/16 01:52:48;;;;;;;7.40;2.42;;;;;;;7.35;83.38;101023.19;1727868;82;21081;-86
2021/10/16 01:55:15;;;;;;;7.28;2.40;;;;;;;7.40;83.35;101020.35;1728041;82;21514;-84
2021/10/16 01:57:42;;;;;;;8.08;2.17;;;;;;;7.44;83.37;101020.07;1728060;83;21054;-83
2021/10/16 02:00:10;;;;;;;5.90;2.10;;;;;;;7.50;83.41;101014.66;1728077;83;21127;-85
2021/10/16 02:02:37;;;;;;;8.18;2.40;;;;;;;7.57;83.46;101011.47;1728172;82;22732;-84
2021/10/16 02:05:05;;;;;;;9.85;2.60;;;;;;;7.68;83.44;101021.51;1728071;83;21077;-85
2021/10/16 02:07:32;;;;;;;10.93;2.60;;;;;;;7.73;83.36;101014.31;1728178;82;21598;-86
2021/10/16 02:09:59;;;;;;;8.20;2.75;;;;;;;7.82;83.37;101019.44;1708983;83;21077;-85
2021/10/16 02:12:30;;;;;;;11.60;2.72;;;;;;;7.90;83.33;101022.85;1708586;83;21614;-85
2021/10/16 02:14:57;;;;;;;10.72;2.40;;;;;;;8.01;83.29;101028.92;1727887;82;21986;-84
2021/10/16 02:17:24;;;;;;;5.28;2.47;;;;;;;8.08;83.23;101033.16;1727876;81;21085;-84
2021/10/16 02:19:51;;;;;;;6.37;2.10;;;;;;;8.18;83.12;101034.41;1727984;82;21070;-84
2021/10/16 02:22:18;;;;;;;8.35;2.25;;;;;;;8.25;83.02;101027.27;1727940;82;21089;-84
2021/10/16 02:24:47;;;;;;;11.93;3.05;;;;;;;8.31;82.93;101030.54;1727942;82;21585;-84
2021/10/16 02:27:13;;;;;;;10.53;2.80;;;;;;;8.38;82.86;101039.12;1727734;81;21780;-84
2021/10/16 02:29:40;;;;;;;10.28;2.77;;;;;;;8.44;82.69;101047.69;1727819;82;21069;-84
2021/10/16 02:32:07;;;;;;;8.35;2.67;;;;;;;8.46;82.54;101042.08;1727876;83;21124;-83
2021/10/16 02:34:33;;;;;;;6.72;2.52;;;;;;;8.51;82.47;101047.09;1727777;81;21210;-83
2021/10/16 02:37:00;;;;;;;10.28;3.17;;;;;;;8.54;82.38;101050.73;1728026;81;21038;-84
2021/10/16 02:39:29;;;;;;;8.48;2.90;;;;;;;8.59;82.30;101057.44;1708368;83;21061;-84
2021/10/16 02:41:58;;;;;;;7.97;2.70;;;;;;;8.65;82.24;101058.09;1727942;82;21089;-84
2021/10/16 02:44:26;;;;;;;10.10;2.92;;;;;;;8.68;82.11;101056.91;1727888;83;21592;-84
2021/10/16 02:46:56;;;;;;;8.95;2.95;;;;;;;8.73;82.04;101056.25;1726915;82;21129;-84
2021/10/16 02:49:21;;;;;;;6.20;2.25;;;;;;;8.78;81.95;101055.52;1716928;82;21128;-84
2021/10/16 02:51:48;;;;;;;8.75;2.40;;;;;;;8.79;81.74;101056.00;1716769;83;21775;-84
2021/10/16 02:54:15;;;;;;;13.70;2.92;;;;;;;8.75;81.53;101053.68;1716566;82;21042;-83
2021/10/16 02:56:42;;;;;;;11.70;2.90;;;;;;;8.67;81.25;101058.65;1717079;83;21545;-83
2021/10/16 02:59:09;;;;;;;9.15;2.87;;;;;;;8.58;81.11;101055.67;1717150;82;21050;-83
2021/10/16 03:01:37;;;;;;;11.20;2.87;;;;;;;8.46;81.00;101052.14;1706276;82;21058;-83
2021/10/16 03:04:04;;;;;;;7.53;3.02;;;;;;;8.35;81.01;101054.34;1717133;82;21786;-83
2021/10/16 03:06:31;;;;;;;7.28;3.02;;;;;;;8.30;81.16;101064.17;1717015;83;21069;-83
2021/10/16 03:09:01;;;;;;;10.72;2.65;;;;;;;8.23;81.31;101057.78;1717278;83;21077;-83
2021/10/16 03:11:30;;;;;;;8.28;3.15;;;;;;;8.22;81.48;101064.27;1716868;82;21129;-83
2021/10/16 03:13:56;;;;;;;7.67;2.87;;;;;;;8.23;81.70;101068.27;1717007;82;21102;-83
2021/10/16 03:16:23;;;;;;;7.22;2.77;;;;;;;8.26;81.74;101063.55;1707328;83;22245;-83
2021/10/16 03:18:54;;;;;;;13.93;2.92;;;;;;;8.22;81.54;101062.56;1717109;83;21102;-84
2021/10/16 03:21:21;;;;;;;9.28;2.83;;;;;;;8.14;81.38;101070.52;1717019;82;21086;-84
2021/10/16 03:23:50;;;;;;;8.38;2.90;;;;;;;8.04;81.32;101074.52;1716550;82;21069;-84
2021/10/16 03:26:17;;;;;;;11.08;2.80;;;;;;;7.95;81.44;101072.83;1717137;83;21082;-85
2021/10/16 03:28:45;;;;;;;13.50;2.90;;;;;;;7.87;81.48;101075.56;1716850;82;21105;-84
2021/10/16 03:31:12;;;;;;;13.35;3.22;;;;;;;7.79;81.57;101073.94;1717076;83;21062;-84
2021/10/16 03:33:38;;;;;;;17.02;3.62;;;;;;;7.72;81.65;101071.47;1717186;83;21163;-83
2021/10/16 03:36:09;;;;;;;18.73;3.00;;;;;;;7.65;81.71;101076.39;1717189;83;21047;-83
2021/10/16 03:38:34;;;;;;;16.48;3.08;;;;;;;7.58;81.81;101077.84;1717105;82;21628;-84
2021/10/16 03:41:01;;;;;;;15.83;3.20;;;;;;;7.51;81.87;101076.70;1717329;83;21812;-83
2021/10/16 03:43:28;;;;;;;13.80;2.80;;;;;;;7.48;82.03;101088.34;1717172;82;21054;-82
2021/10/16 03:45:54;;;;;;;12.85;3.60;;;;;;;7.44;82.14;101083.81;1717079;82;21566;-84
2021/10/16 03:48:21;;;;;;;14.70;3.37;;;;;;;7.42;82.25;101088.09;1716908;82;21694;-83
2021/10/16 03:50:53;;;;;;;14.65;3.47;;;;;;;7.41;82.44;101084.98;1716943;82;21016;-84
2021/10/16 03:53:20;;;;;;;16.30;3.27;;;;;;;7.40;82.46;101086.71;1716751;83;21827;-84
2021/10/16 03:55:47;;;;;;;14.03;3.22;;;;;;;7.38;82.47;101088.80;1717042;83;21058;-83
2021/10/16 03:58:17;;;;;;;13.15;3.52;;;;;;;7.36;82.49;101088.72;1717207;82;21066;-84
2021/10/16 04:00:49;;;;;;;9.90;2.90;;;;;;;7.34;82.55;101092.12;1706712;83;21075;-84
2021/10/16 04:03:14;;;;;;;11.97;3.00;;;;;;;7.31;82.62;101094.16;1716934;82;21046;-84
2021/10/16 04:05:41;;;;;;;11.68;3.10;;;;;;;7.29;82.65;101090.59;1717025;82;22596;-84
2021/10/16 04:08:08;;;;;;;16.82;3.62;;;;;;;7.27;82.72;101092.25;1717090;83;21042;-84
2021/10/16 04:10:36;;;;;;;15.55;3.10;;;;;;;7.28;82.80;101093.13;1716905;82;21117;-85
2021/10/16 04:13:03;;;;;;;13.50;3.35;;;;;;;7.27;82.79;101100.11;1706922;83;21070;-84
2021/10/16 04:15:33;;;;;;;9.43;2.77;;;;;;;7.25;82.76;101091.71;1716100;83;21671;-85
2021/10/16 04:18:00;;;;;;;16.25;3.98;;;;;;;7.23;82.83;101092.06;1717219;82;22726;-84
2021/10/16 04:20:27;;;;;;;13.90;3.15;;;;;;;7.20;82.81;101091.07;1717140;83;21007;-88
2021/10/16 04:22:54;;;;;;;11.50;2.87;;;;;;;7.20;82.81;101096.30;1706980;83;21647;-91
2021/10/16 04:25:21;;;;;;;17.85;3.77;;;;;;;7.17;82.81;101093.58;1706892;83;21326;-87
2021/10/16 04:27:51;;;;;;;14.50;3.52;;;;;;;7.17;82.91;101105.75;1717401;83;21109;-87
2021/10/16 04:30:17;;;;;;;14.03;3.30;;;;;;;7.18;82.95;101112.78;1717251;82;21764;-87
2021/10/16 04:32:50;;;;;;;13.43;2.83;;;;;;;7.18;82.97;101108.44;1664375;84;21137;-86
2021/10/16 04:35:20;;;;;;;11.08;3.00;;;;;;;7.17;82.96;101105.35;1675658;84;21135;-85
2021/10/16 04:37:57;;;;;;;14.18;2.90;;;;;;;7.17;82.91;101109.28;1677604;84;21117;-85
2021/10/16 04:40:28;;;;;;;12.73;3.42;;;;;;;7.16;82.89;101114.02;1662049;85;21149;-85
2021/10/16 04:43:01;;;;;;;16.95;2.98;;;;;;;7.13;82.80;101115.60;1657111;85;21139;-87
2021/10/16 04:45:28;;;;;;;19.00;3.15;;;;;;;7.10;82.89;101115.06;1677501;84;21070;-84
2021/10/16 04:48:00;;;;;;;7.97;3.00;;;;;;;7.05;82.78;101115.27;1689767;82;21027;-83
2021/10/16 04:50:28;;;;;;;17.23;3.58;;;;;;;7.02;82.85;101121.69;1682957;84;21148;-86
2021/10/16 04:52:55;;;;;;;13.28;2.87;;;;;;;7.01;82.98;101118.15;1685072;85;21101;-85
2021/10/16 04:55:23;;;;;;;17.40;3.42;;;;;;;7.01;82.96;101123.81;1654215;86;21776;-86
2021/10/16 04:57:50;;;;;;;20.88;4.10;;;;;;;6.99;83.01;101132.00;1684946;85;21094;-85
2021/10/16 05:00:19;;;;;;;14.18;3.20;;;;;;;6.98;83.05;101123.66;1638332;85;21179;-83
2021/10/16 05:02:49;;;;;;;12.93;2.85;;;;;;;6.96;83.14;101130.55;1687516;84;21116;-83
2021/10/16 05:05:16;;;;;;;15.65;3.17;;;;;;;6.96;83.20;101127.93;1696896;83;21075;-83
2021/10/16 05:07:45;;;;;;;18.05;3.20;;;;;;;6.96;83.19;101132.78;1687352;84;22017;-82
2021/10/16 05:10:12;;;;;;;12.93;3.80;;;;;;;6.96;83.25;101135.78;1697444;83;21060;-82
2021/10/16 05:12:39;;;;;;;18.00;3.30;;;;;;;6.96;83.30;101141.02;1687247;85;21279;-83
2021/10/16 05:15:07;;;;;;;14.95;3.85;;;;;;;6.98;83.38;101140.28;1697215;84;21135;-82
2021/10/16 05:17:37;;;;;;;16.27;3.35;;;;;;;6.99;83.39;101143.78;1687208;85;21598;-83
2021/10/16 05:20:12;;;;;;;17.67;3.45;;;;;;;7.00;83.38;101145.55;1676572;84;21084;-82
2021/10/16 05:22:41;;;;;;;14.45;3.75;;;;;;;6.99;83.34;101145.09;1686489;84;21057;-83
2021/10/16 05:25:10;;;;;;;9.45;2.80;;;;;;;7.01;83.34;101149.98;1662568;84;21700;-83
2021/10/16 05:27:38;;;;;;;18.50;3.50;;;;;;;6.98;83.31;101142.90;1671295;84;21093;-83
2021/10/16 05:30:26;;;;;;;18.40;3.72;;;;;;;6.99;83.31;101152.52;1687064;84;21133;-83
2021/10/16 05:32:56;;;;;;;13.20;3.80;;;;;;;7.01;83.38;101151.29;1737687;81;22748;-81
2021/10/16 05:35:48;;;;;;;17.80;3.52;;;;;;;7.03;83.38;101150.06;1737989;82;21067;-81
2021/10/16 05:38:07;;;;;;;;;;;;;;;7.05;83.36;101149.29;1730541;82;21028;-81
2021/10/16 05:40:33;;;;;;;13.50;3.40;;;;;;;7.06;83.32;101153.72;1737862;82;20382;-81
2021/10/16 05:43:01;;;;;;;15.43;4.03;;;;;;;7.07;83.31;101150.25;1738198;82;21537;-83
2021/10/16 05:45:27;;;;;;;15.38;4.70;;;;;;;7.09;83.33;101149.02;1738113;82;21763;-91
2021/10/16 05:47:54;;;;;;;19.50;5.65;;;;;;;7.12;83.34;101155.72;1738473;82;21028;-92
2021/10/16 05:50:21;;;;;;;13.18;5.17;;;;;;;7.15;83.40;101161.98;1738604;82;21032;-92
2021/10/16 05:52:47;;;;;;;17.52;5.28;;;;;;;7.20;83.44;101152.59;1737955;82;21123;-84
2021/10/16 05:55:14;;;;;;;18.15;5.03;;;;;;;7.28;83.44;101151.66;1737277;82;21098;-83
2021/10/16 05:57:41;;;;;;;17.85;5.35;;;;;;;7.35;83.37;101158.05;1737209;82;22347;-84
2021/10/16 06:00:09;;;;;;;22.05;6.15;;;;;;;7.45;83.37;101164.59;1737175;82;21052;-82
2021/10/16 06:02:35;;;;;;;17.92;6.47;;;;;;;7.53;83.32;101164.11;1737312;82;21134;-82
2021/10/16 06:05:02;;;;;;;20.32;7.10;;;;;;;7.65;83.28;101168.09;1737415;82;21161;-81
2021/10/16 06:07:29;;;;;;;21.25;6.62;;;;;;;7.77;83.19;101173.45;1735302;82;21102;-82
2021/10/16 06:09:55;;;;;;;20.25;5.47;;;;;;;7.87;83.03;101175.16;1737295;82;21792;-81
2021/10/16 06:12:22;;;;;;;16.27;4.80;;;;;;;7.97;82.92;101180.83;1737728;82;21085;-81
2021/10/16 06:14:49;;;;;;;11.28;3.70;;;;;;;8.09;82.88;101180.87;1735777;80;21069;-82
2021/10/16 06:17:15;;;;;;;17.27;4.47;;;;;;;8.22;82.78;101184.52;1713617;82;21074;-81
2021/10/16 06:19:44;;;;;;;18.17;4.60;;;;;;;8.32;82.58;101189.28;1737281;82;21074;-81
2021/10/16 06:22:11;;;;;;;20.70;5.20;;;;;;;8.43;82.48;101190.16;1717690;83;21782;-81
2021/10/16 06:24:37;;;;;;;13.65;5.10;;;;;;;8.51;82.28;101192.27;1735636;82;21597;-81
2021/10/16 06:27:04;;;;;;;14.40;4.25;;;;;;;8.60;82.22;101204.00;1719008;83;21060;-80
2021/10/16 06:29:31;;;;;;;17.02;3.98;;;;;;;8.67;81.95;101197.73;1727947;82;21163;-81
2021/10/16 06:31:57;;;;;;;16.05;4.40;;;;;;;8.74;81.84;101202.37;1731035;80;21040;-81
2021/10/16 06:34:24;;;;;;;18.50;4.35;;;;;;;8.79;81.72;101209.13;1690714;81;22033;-81
2021/10/16 06:36:51;;;;;;;17.15;4.15;;;;;;;8.83;81.57;101212.34;1686643;83;21587;-83
2021/10/16 06:39:17;;;;;;;19.95;4.37;;;;;;;8.86;81.40;101219.44;1716932;82;21146;-81
2021/10/16 06:41:44;;;;;;;13.38;4.05;;;;;;;8.88;81.31;101217.80;1722093;82;21090;-82
2021/10/16 06:44:10;;;;;;;17.65;4.33;;;;;;;8.89;81.22;101221.77;1711981;81;21077;-82
2021/10/16 06:46:37;;;;;;;24.90;15.08;;;;;;;8.92;81.15;101224.95;1755108;81;21267;-81
2021/10/16 06:49:04;;;;;;;19.07;7.95;;;;;;;8.94;81.12;101227.22;1739487;81;21133;-82
2021/10/16 06:51:30;;;;;;;18.45;9.38;;;;;;;8.94;81.02;101229.84;1693011;83;21037;-85
2021/10/16 06:53:57;;;;;;;21.50;14.28;;;;;;;8.95;80.97;101231.61;1695617;83;21281;-80
2021/10/16 06:56:26;;;;;;;23.70;11.80;;;;;;;8.95;80.90;101234.24;1701469;82;21070;-91
2021/10/16 06:58:52;;;;;;;20.95;8.25;;;;;;;8.95;80.89;101236.47;1708106;83;21779;-90
2021/10/16 07:01:19;;;;;;;21.30;11.73;;;;;;;8.99;80.92;101241.43;1711492;82;21086;-90
2021/10/16 07:03:46;;;;;;;14.47;6.45;;;;;;;9.02;80.88;101244.16;1735356;82;21043;-91
2021/10/16 07:06:12;;;;;;;19.07;6.75;;;;;;;9.06;80.91;101255.25;1745965;82;21513;-89
2021/10/16 07:08:39;;;;;;;18.90;7.62;;;;;;;9.11;80.85;101259.39;1745902;82;21110;-90
2021/10/16 07:11:06;;;;;;;45.17;27.07;;;;;;;9.14;80.78;101269.59;1745874;82;21734;-93
2021/10/16 07:13:33;;;;;;;28.32;13.55;;;;;;;9.18;80.75;101271.01;1745926;82;21038;-94
2021/10/16 07:16:00;;;;;;;27.20;13.55;;;;;;;9.21;80.69;101266.77;1719405;82;21634;-94
2021/10/16 07:18:27;;;;;;;38.73;20.70;;;;;;;9.25;80.83;101266.48;1710272;83;21561;-93
2021/10/16 07:20:53;;;;;;;41.98;23.92;;;;;;;9.31;80.77;101270.67;1715906;82;21711;-85
2021/10/16 07:23:26;;;;;;;33.92;18.05;;;;;;;9.36;80.66;101273.03;1709232;83;21812;-84
2021/10/16 07:25:49;;;;;;;43.50;25.17;;;;;;;9.40;80.58;101276.68;1708960;83;21532;-84
2021/10/16 07:28:15;;;;;;;45.85;27.50;;;;;;;9.43;80.52;101277.69;1709609;83;21075;-84
2021/10/16 07:30:42;;;;;;;40.85;21.73;;;;;;;9.47;80.49;101274.34;1709636;83;21079;-84
2021/10/16 07:33:12;;;;;;;26.12;9.73;;;;;;;9.51;80.45;101281.50;1709625;83;21035;-93
2021/10/16 07:35:37;;;;;;;28.20;11.57;;;;;;;9.56;80.37;101285.63;1710314;83;21804;-92
2021/10/16 07:38:04;;;;;;;22.75;8.33;;;;;;;9.62;80.37;101283.65;1697788;83;21008;-92
2021/10/16 07:40:31;;;;;;;23.32;9.78;;;;;;;9.65;80.18;101284.66;1710148;82;21089;-92
2021/10/16 07:42:57;;;;;;;21.73;7.33;;;;;;;9.70;80.18;101280.48;1710173;82;21040;-93
2021/10/16 07:45:24;;;;;;;22.48;7.62;;;;;;;9.76;80.07;101282.83;1710370;82;21059;-93
2021/10/16 07:47:51;;;;;;;19.20;5.22;;;;;;;9.80;80.03;101284.34;1710205;83;21763;-91
2021/10/16 07:50:18;;;;;;;16.67;7.25;;;;;;;9.86;79.96;101282.34;1710510;83;21114;-93
2021/10/16 07:52:47;;;;;;;19.67;8.08;;;;;;;9.91;79.86;101278.16;1710240;83;21023;-93
2021/10/16 07:55:14;;;;;;;25.27;10.53;;;;;;;9.98;79.79;101281.89;1709996;83;21125;-93
2021/10/16 07:57:41;;;;;;;21.68;6.97;;;;;;;10.01;79.60;101283.33;1710253;83;21042;-93
2021/10/16 08:00:08;;;;;;;16.85;5.87;;;;;;;10.05;79.50;101276.90;1710466;83;21843;-92
2021/10/16 08:02:35;;;;;;;14.80;6.17;;;;;;;10.10;79.45;101290.23;1688259;83;21108;-93
2021/10/16 08:05:03;;;;;;;18.17;6.12;;;;;;;10.13;79.24;101277.16;1709919;83;21019;-93
2021/10/16 08:07:30;;;;;;;17.60;5.85;;;;;;;10.18;79.24;101291.81;1687897;83;21058;-93
2021/10/16 08:09:57;;;;;;;13.25;5.35;;;;;;;10.22;79.13;101285.38;1710241;83;21110;-93
2021/10/16 08:12:24;;;;;;;22.75;9.35;;;;;;;10.26;79.01;101285.95;1710102;83;21764;-94
2021/10/16 08:14:51;;;;;;;16.05;4.78;;;;;;;10.30;78.83;101285.28;1710145;83;21011;-93
2021/10/16 08:17:18;;;;;;;14.03;5.33;;;;;;;10.36;78.62;101299.47;1709993;83;21510;-93
2021/10/16 08:19:44;;;;;;;15.78;4.22;;;;;;;10.38;78.44;101299.10;1710129;82;21023;-93
2021/10/16 08:22:14;;;;;;;13.32;5.10;;;;;;;10.43;78.42;101294.90;1710120;83;21678;-93
2021/10/16 08:24:42;;;;;;;19.00;7.05;;;;;;;10.50;78.44;101300.85;1710061;83;21927;-93
2021/10/16 08:27:08;;;;;;;18.30;6.53;;;;;;;10.54;78.25;101293.95;1709780;82;21513;-84
2021/10/16 08:29:35;;;;;;;29.40;12.88;;;;;;;10.56;78.00;101296.22;1709859;83;21035;-85
2021/10/16 08:32:02;;;;;;;14.55;6.53;;;;;;;10.57;77.94;101293.64;1708278;83;21047;-84
2021/10/16 08:34:29;;;;;;;26.20;10.88;;;;;;;10.63;77.90;101289.89;1690103;84;21564;-93
2021/10/16 08:36:55;;;;;;;17.85;7.20;;;;;;;10.69;77.88;101289.20;1705388;84;21775;-84
2021/10/16 08:39:23;;;;;;;22.10;10.32;;;;;;;10.76;77.86;101296.46;1689777;83;21074;-85
2021/10/16 08:41:50;;;;;;;16.05;5.03;;;;;;;10.83;77.80;101294.91;1704601;83;21106;-85
2021/10/16 08:44:17;;;;;;;44.60;18.25;;;;;;;10.92;77.81;101298.27;1689420;84;21031;-85
2021/10/16 08:46:44;;;;;;;33.60;15.68;;;;;;;11.02;77.73;101291.16;1704741;84;21111;-85
2021/10/16 08:49:15;;;;;;;20.37;7.53;;;;;;;11.14;77.59;101295.47;1704545;83;21951;-85
2021/10/16 08:51:42;;;;;;;19.25;5.40;;;;;;;11.27;77.26;101299.39;1675136;85;21083;-85
2021/10/16 08:54:09;;;;;;;15.45;4.60;;;;;;;11.37;77.15;101305.83;1705136;84;21070;-85
2021/10/16 08:56:35;;;;;;;15.58;5.08;;;;;;;11.48;77.01;101306.62;1689603;84;21082;-85
2021/10/16 08:59:02;;;;;;;13.45;5.08;;;;;;;11.61;76.89;101305.68;1705073;83;20996;-84
2021/10/16 09:01:29;;;;;;;19.73;5.78;;;;;;;11.69;76.72;101302.83;1689625;84;22428;-84
2021/10/16 09:03:57;;;;;;;17.17;5.72;;;;;;;11.76;76.53;101307.44;1705091;83;21007;-84
2021/10/16 09:06:35;;;;;;;11.78;4.83;;;;;;;11.78;76.23;101303.53;1689682;84;21074;-84
2021/10/16 09:09:05;;;;;;;11.15;4.25;;;;;;;11.84;76.03;101308.58;1705309;84;21093;-84
2021/10/16 09:11:44;;;;;;;12.60;5.47;;;;;;;11.89;75.70;101310.45;1689650;84;21110;-83
2021/10/16 09:14:27;;;;;;;15.85;4.40;;;;;;;11.90;75.53;101312.25;1705276;82;21762;-92
2021/10/16 09:16:58;;;;;;;72.72;30.00;;;;;;;11.92;75.54;101315.42;1671885;84;21062;-92
2021/10/16 09:19:36;;;;;;;17.70;7.03;;;;;;;11.99;75.44;101313.84;1683569;84;21098;-93
2021/10/16 09:22:09;;;;;;;31.42;13.15;;;;;;;12.03;75.12;101320.98;1669495;84;21524;-92
2021/10/16 09:24:43;;;;;;;33.53;13.03;;;;;;;12.07;75.03;101329.48;1705771;84;21606;-92
2021/10/16 09:27:14;;;;;;;;;;;;;;;12.12;74.89;101327.84;1707920;82;21790;-93
2021/10/16 09:29:47;;;;;;;14.80;4.92;;;;;;;12.27;74.69;101326.48;1690150;84;20711;-92
2021/10/16 09:32:16;;;;;;;14.23;5.42;;;;;;;12.34;74.36;101323.16;1706594;83;21133;-84
2021/10/16 09:34:45;;;;;;;14.53;4.03;;;;;;;12.34;74.05;101327.12;1709542;83;21027;-93
2021/10/16 09:37:16;;;;;;;12.85;3.95;;;;;;;12.31;73.50;101330.55;1710300;82;21027;-93
2021/10/16 09:39:51;;;;;;;11.18;3.83;;;;;;;12.24;73.38;101331.27;1710224;82;21840;-92
2021/10/16 09:42:31;;;;;;;14.43;3.92;;;;;;;12.18;73.02;101330.67;1710383;82;21055;-93
2021/10/16 09:45:03;;;;;;;12.43;4.10;;;;;;;12.13;72.79;101340.20;1710078;83;21063;-93
2021/10/16 09:47:30;;;;;;;12.98;4.50;;;;;;;12.06;72.35;101339.55;1710180;82;21082;-92
2021/10/16 09:50:06;;;;;;;12.23;3.80;;;;;;;12.02;72.37;101340.31;1710273;82;21023;-93
2021/10/16 09:52:37;;;;;;;15.70;4.45;;;;;;;12.09;72.59;101345.33;1710194;83;22727;-93
2021/10/16 09:55:05;;;;;;;18.92;7.30;;;;;;;12.23;72.44;101342.23;1710055;83;21078;-92
2021/10/16 09:57:32;;;;;;;14.95;4.85;;;;;;;12.35;72.18;101343.41;1698093;83;21035;-93
2021/10/16 10:00:03;;;;;;;35.10;16.45;;;;;;;12.38;71.95;101336.47;1714421;82;21797;-92
2021/10/16 10:02:32;;;;;;;17.05;6.25;;;;;;;12.43;71.90;101337.50;1692541;82;21621;-93
2021/10/16 10:04:59;;;;;;;16.32;6.17;;;;;;;12.50;71.41;101338.57;1746053;81;21768;-93
2021/10/16 10:07:26;;;;;;;11.78;3.70;;;;;;;12.56;71.12;101340.48;1735759;81;21039;-91
2021/10/16 10:09:52;;;;;;;12.65;3.83;;;;;;;12.52;70.46;101343.46;1735753;82;21066;-92
2021/10/16 10:12:21;;;;;;;13.68;5.50;;;;;;;12.46;70.31;101344.59;1745755;82;21059;-90
2021/10/16 10:14:49;;;;;;;51.75;27.05;;;;;;;12.36;70.20;101350.06;1746187;80;21027;-93
2021/10/16 10:17:27;;;;;;;28.23;13.75;;;;;;;12.25;70.08;101358.99;1746003;80;21697;-91
2021/10/16 10:20:00;;;;;;;13.40;5.62;;;;;;;12.18;69.92;101361.42;1726335;82;21078;-91
2021/10/16 10:22:31;;;;;;;15.55;7.10;;;;;;;12.09;69.74;101363.80;1745118;80;27757;-82
2021/10/16 10:24:58;;;;;;;11.60;4.15;;;;;;;12.02;69.81;101358.36;1734855;81;21030;-84
2021/10/16 10:27:25;;;;;;;13.62;4.05;;;;;;;11.99;69.68;101355.65;1745183;82;21144;-81
2021/10/16 10:29:53;;;;;;;13.68;3.90;;;;;;;12.03;69.67;101357.92;1745140;80;21750;-82
2021/10/16 10:32:24;;;;;;;11.75;3.30;;;;;;;12.19;69.90;101364.11;1744579;80;21035;-86
2021/10/16 10:35:00;;;;;;;14.15;4.33;;;;;;;12.37;69.75;101368.10;1742871;81;21082;-83
2021/10/16 10:37:53;;;;;;;12.25;6.03;;;;;;;12.55;69.55;101363.33;1743179;81;21620;-84
2021/10/16 10:40:23;;;;;;;9.10;3.70;;;;;;;12.75;69.14;101367.83;1743059;80;21047;-84
2021/10/16 10:42:55;;;;;;;9.63;3.20;;;;;;;12.81;68.60;101366.66;1743289;82;22456;-83
2021/10/16 10:45:35;;;;;;;9.65;3.85;;;;;;;12.80;68.21;101371.89;1743355;82;21079;-93
2021/10/16 10:48:13;;;;;;;13.88;4.28;;;;;;;12.68;68.08;101363.23;1742654;81;21078;-82
2021/10/16 10:50:48;;;;;;;14.93;4.80;;;;;;;12.65;68.17;101367.13;1700412;82;21567;-81
2021/10/16 10:53:30;;;;;;;12.65;5.20;;;;;;;12.70;68.31;101365.92;1742984;82;21031;-83
2021/10/16 10:56:04;;;;;;;12.65;6.03;;;;;;;12.74;68.07;101368.66;1740987;82;21775;-81
2021/10/16 10:58:57;;;;;;;26.15;10.28;;;;;;;12.83;68.02;101373.30;1743143;81;21544;-81
2021/10/16 11:01:59;;;;;;;15.53;6.45;;;;;;;12.93;67.98;101380.62;1742603;82;21043;-82
2021/10/16 11:04:44;;;;;;;11.95;5.25;;;;;;;13.14;67.81;101376.30;1742624;82;21552;-85
2021/10/16 11:07:15;;;;;;;13.18;4.28;;;;;;;13.31;67.83;101384.67;1742806;82;21536;-82
2021/10/16 11:09:43;;;;;;;9.15;3.62;;;;;;;13.58;67.86;101390.13;1718974;81;21703;-83
2021/10/16 11:12:12;;;;;;;11.63;3.90;;;;;;;13.73;67.44;101384.30;1743334;82;21067;-92
2021/10/16 11:14:42;;;;;;;12.68;4.08;;;;;;;13.81;67.34;101385.34;1743147;82;21074;-83
2021/10/16 11:17:14;;;;;;;12.13;3.60;;;;;;;13.77;66.82;101379.53;1743377;82;21070;-85
2021/10/16 11:19:55;;;;;;;16.60;3.87;;;;;;;13.73;66.86;101382.53;1743642;81;21023;-88
2021/10/16 11:22:41;;;;;;;9.88;4.08;;;;;;;13.77;66.97;101388.35;1744008;81;21771;-87
2021/10/16 11:25:09;;;;;;;20.52;8.45;;;;;;;13.85;66.89;101385.91;1735791;81;21584;-88
2021/10/16 11:27:35;;;;;;;14.38;4.65;;;;;;;13.95;66.79;101384.34;1722115;83;21102;-90
2021/10/16 11:30:04;;;;;;;32.58;17.17;;;;;;;14.01;66.58;101388.44;1718205;83;21066;-88